sensor_id;sensor_type;location;lat;lon;timestamp;pressure;altitude;pressure_sealevel;temperature;humidity
55757;BME280;41676;44.610;44.078;2023-08-07T00:02:47;99214.69;;;25.83;70.46
55757;BME280;41676;44.610;44.078;2023-08-07T00:07:47;99290.97;;;26.30;70.31
55757;BME280;41676;44.610;44.078;2023-08-07T00:12:48;99265.09;;;26.13;70.57
55757;BME280;41676;44.610;44.078;2023-08-07T00:17:49;99277.00;;;26.17;70.95
55757;BME280;41676;44.610;44.078;2023-08-07T00:22:49;99192.19;;;25.59;71.36
55757;BME280;41676;44.610;44.078;2023-08-07T00:27:50;99254.25;;;25.94;71.02
55757;BME280;41676;44.610;44.078;2023-08-07T00:32:51;99211.81;;;25.56;71.50
55757;BME280;41676;44.610;44.078;2023-08-07T00:37:52;99205.06;;;25.53;72.14
55757;BME280;41676;44.610;44.078;2023-08-07T00:42:52;99285.34;;;25.88;72.29
55757;BME280;41676;44.610;44.078;2023-08-07T00:47:53;99222.66;;;25.37;72.69
55757;BME280;41676;44.610;44.078;2023-08-07T00:52:55;99289.94;;;25.69;72.91
55757;BME280;41676;44.610;44.078;2023-08-07T00:57:57;99261.47;;;25.42;72.79
55757;BME280;41676;44.610;44.078;2023-08-07T01:02:59;99277.72;;;25.47;72.95
55757;BME280;41676;44.610;44.078;2023-08-07T01:08:00;99217.69;;;25.01;73.37
55757;BME280;41676;44.610;44.078;2023-08-07T01:13:12;99274.84;;;25.39;74.36
55757;BME280;41676;44.610;44.078;2023-08-07T01:18:17;99289.19;;;25.44;73.27
55757;BME280;41676;44.610;44.078;2023-08-07T01:23:18;99283.38;;;25.51;72.86
55757;BME280;41676;44.610;44.078;2023-08-07T01:28:33;99288.59;;;25.47;74.22
55757;BME280;41676;44.610;44.078;2023-08-07T01:34:04;99291.84;;;25.49;73.52
55757;BME280;41676;44.610;44.078;2023-08-07T01:39:05;99298.44;;;25.43;72.68
55757;BME280;41676;44.610;44.078;2023-08-07T01:44:09;99295.78;;;25.38;72.10
55757;BME280;41676;44.610;44.078;2023-08-07T01:49:10;99286.63;;;25.34;72.19
55757;BME280;41676;44.610;44.078;2023-08-07T01:54:11;99297.72;;;25.38;71.94
55757;BME280;41676;44.610;44.078;2023-08-07T01:59:11;99299.63;;;25.37;71.96
55757;BME280;41676;44.610;44.078;2023-08-07T02:04:12;99315.78;;;25.47;72.36
55757;BME280;41676;44.610;44.078;2023-08-07T02:09:13;99309.44;;;25.33;73.14
55757;BME280;41676;44.610;44.078;2023-08-07T02:14:13;99315.94;;;25.37;73.42
55757;BME280;41676;44.610;44.078;2023-08-07T02:19:14;99257.03;;;25.03;72.76
55757;BME280;41676;44.610;44.078;2023-08-07T02:24:15;99313.72;;;25.39;73.19
55757;BME280;41676;44.610;44.078;2023-08-07T02:29:16;99340.31;;;25.42;73.92
55757;BME280;41676;44.610;44.078;2023-08-07T02:34:16;99331.31;;;25.47;74.33
55757;BME280;41676;44.610;44.078;2023-08-07T02:39:17;99320.97;;;25.49;74.12
55757;BME280;41676;44.610;44.078;2023-08-07T02:44:18;99308.06;;;25.55;73.82
55757;BME280;41676;44.610;44.078;2023-08-07T02:49:20;99330.47;;;25.70;73.22
55757;BME280;41676;44.610;44.078;2023-08-07T02:54:21;99319.31;;;25.91;72.53
55757;BME280;41676;44.610;44.078;2023-08-07T02:59:21;99264.06;;;25.90;71.06
55757;BME280;41676;44.610;44.078;2023-08-07T03:04:22;99271.19;;;26.38;70.73
55757;BME280;41676;44.610;44.078;2023-08-07T03:09:23;99310.19;;;27.13;68.54
55757;BME280;41676;44.610;44.078;2023-08-07T03:14:24;99312.47;;;27.74;66.59
55757;BME280;41676;44.610;44.078;2023-08-07T03:19:24;99322.78;;;28.59;64.20
55757;BME280;41676;44.610;44.078;2023-08-07T03:24:25;99313.47;;;28.91;62.38
55757;BME280;41676;44.610;44.078;2023-08-07T03:29:26;99323.06;;;29.60;60.75
55757;BME280;41676;44.610;44.078;2023-08-07T03:34:27;99205.06;;;29.70;58.80
55757;BME280;41676;44.610;44.078;2023-08-07T03:39:28;99332.25;;;30.59;57.72
55757;BME280;41676;44.610;44.078;2023-08-07T03:44:29;99329.25;;;30.99;56.51
55757;BME280;41676;44.610;44.078;2023-08-07T03:49:29;99307.34;;;31.58;55.13
55757;BME280;41676;44.610;44.078;2023-08-07T03:54:30;99302.81;;;31.83;53.76
55757;BME280;41676;44.610;44.078;2023-08-07T03:59:31;99297.78;;;32.06;53.53
55757;BME280;41676;44.610;44.078;2023-08-07T04:04:31;99304.63;;;32.55;51.89
55757;BME280;41676;44.610;44.078;2023-08-07T04:09:32;99302.75;;;32.92;51.26
55757;BME280;41676;44.610;44.078;2023-08-07T04:14:33;99312.69;;;32.96;50.29
55757;BME280;41676;44.610;44.078;2023-08-07T04:19:34;99268.50;;;33.02;49.51
55757;BME280;41676;44.610;44.078;2023-08-07T04:24:34;99301.06;;;33.36;48.77
55757;BME280;41676;44.610;44.078;2023-08-07T04:29:35;99289.91;;;33.57;48.65
55757;BME280;41676;44.610;44.078;2023-08-07T04:34:36;99272.94;;;33.55;48.48
55757;BME280;41676;44.610;44.078;2023-08-07T04:39:36;99225.69;;;33.29;49.14
55757;BME280;41676;44.610;44.078;2023-08-07T04:44:37;99284.34;;;33.82;48.85
55757;BME280;41676;44.610;44.078;2023-08-07T04:49:38;99283.13;;;33.67;48.86
55757;BME280;41676;44.610;44.078;2023-08-07T04:54:39;99275.63;;;33.80;48.41
55757;BME280;41676;44.610;44.078;2023-08-07T04:59:39;99274.91;;;33.83;48.34
55757;BME280;41676;44.610;44.078;2023-08-07T05:04:40;99269.03;;;33.56;48.86
55757;BME280;41676;44.610;44.078;2023-08-07T05:09:41;99246.03;;;33.24;49.03
55757;BME280;41676;44.610;44.078;2023-08-07T05:14:42;99269.44;;;33.06;50.15
55757;BME280;41676;44.610;44.078;2023-08-07T05:19:42;99236.47;;;32.60;50.79
55757;BME280;41676;44.610;44.078;2023-08-07T05:24:43;99252.50;;;32.46;50.57
55757;BME280;41676;44.610;44.078;2023-08-07T05:29:45;99260.09;;;32.28;51.48
55757;BME280;41676;44.610;44.078;2023-08-07T05:34:46;99246.34;;;31.95;51.76
55757;BME280;41676;44.610;44.078;2023-08-07T05:39:46;99270.75;;;32.29;51.85
55757;BME280;41676;44.610;44.078;2023-08-07T05:44:47;99260.47;;;32.39;50.36
55757;BME280;41676;44.610;44.078;2023-08-07T05:49:48;99216.09;;;32.49;50.88
55757;BME280;41676;44.610;44.078;2023-08-07T05:54:48;99245.19;;;32.87;49.79
55757;BME280;41676;44.610;44.078;2023-08-07T05:59:49;99269.75;;;33.04;50.07
55757;BME280;41676;44.610;44.078;2023-08-07T06:04:50;99258.03;;;32.95;49.87
55757;BME280;41676;44.610;44.078;2023-08-07T06:09:51;99262.66;;;33.15;49.33
55757;BME280;41676;44.610;44.078;2023-08-07T06:14:51;99256.63;;;33.50;49.32
55757;BME280;41676;44.610;44.078;2023-08-07T06:19:52;99259.81;;;33.64;48.59
55757;BME280;41676;44.610;44.078;2023-08-07T06:24:53;99248.19;;;33.83;48.16
55757;BME280;41676;44.610;44.078;2023-08-07T06:29:54;99230.03;;;33.82;47.82
55757;BME280;41676;44.610;44.078;2023-08-07T06:34:55;99237.34;;;34.03;46.68
55757;BME280;41676;44.610;44.078;2023-08-07T06:39:55;99240.41;;;34.29;46.78
55757;BME280;41676;44.610;44.078;2023-08-07T06:44:56;99239.53;;;34.41;46.42
55757;BME280;41676;44.610;44.078;2023-08-07T06:49:57;99261.06;;;34.51;45.51
55757;BME280;41676;44.610;44.078;2023-08-07T06:54:57;99269.09;;;34.57;45.07
55757;BME280;41676;44.610;44.078;2023-08-07T06:59:58;99254.50;;;34.72;45.55
55757;BME280;41676;44.610;44.078;2023-08-07T07:04:59;99261.25;;;34.90;45.65
55757;BME280;41676;44.610;44.078;2023-08-07T07:10:00;99240.81;;;34.91;43.99
55757;BME280;41676;44.610;44.078;2023-08-07T07:15:01;99245.41;;;35.19;43.85
55757;BME280;41676;44.610;44.078;2023-08-07T07:20:02;99248.16;;;35.19;43.21
55757;BME280;41676;44.610;44.078;2023-08-07T07:25:04;99249.78;;;35.55;43.91
55757;BME280;41676;44.610;44.078;2023-08-07T07:30:05;99239.84;;;35.70;42.82
55757;BME280;41676;44.610;44.078;2023-08-07T07:35:06;99237.88;;;35.90;42.64
55757;BME280;41676;44.610;44.078;2023-08-07T07:40:08;99237.63;;;35.99;43.34
55757;BME280;41676;44.610;44.078;2023-08-07T07:45:09;99225.03;;;36.01;42.07
55757;BME280;41676;44.610;44.078;2023-08-07T07:50:10;99241.81;;;36.31;41.71
55757;BME280;41676;44.610;44.078;2023-08-07T07:55:11;99250.66;;;36.60;41.60
55757;BME280;41676;44.610;44.078;2023-08-07T08:00:14;99272.94;;;36.94;41.72
55757;BME280;41676;44.610;44.078;2023-08-07T08:05:15;99277.97;;;37.11;41.22
55757;BME280;41676;44.610;44.078;2023-08-07T08:10:16;99274.69;;;37.29;41.17
55757;BME280;41676;44.610;44.078;2023-08-07T08:15:17;99252.22;;;37.07;40.81
55757;BME280;41676;44.610;44.078;2023-08-07T08:20:17;99254.03;;;37.22;40.57
55757;BME280;41676;44.610;44.078;2023-08-07T08:25:19;99269.09;;;37.52;38.74
55757;BME280;41676;44.610;44.078;2023-08-07T08:30:20;99242.72;;;37.08;40.56
55757;BME280;41676;44.610;44.078;2023-08-07T08:35:21;99256.03;;;37.26;40.40
55757;BME280;41676;44.610;44.078;2023-08-07T08:40:23;99270.09;;;37.40;39.76
55757;BME280;41676;44.610;44.078;2023-08-07T08:45:25;99257.50;;;37.46;39.35
55757;BME280;41676;44.610;44.078;2023-08-07T08:50:26;99252.16;;;37.60;39.41
55757;BME280;41676;44.610;44.078;2023-08-07T08:55:28;99248.47;;;37.49;39.42
55757;BME280;41676;44.610;44.078;2023-08-07T09:00:30;99275.16;;;37.61;38.86
55757;BME280;41676;44.610;44.078;2023-08-07T09:05:31;99269.72;;;37.72;38.85
55757;BME280;41676;44.610;44.078;2023-08-07T09:10:32;99250.81;;;37.77;38.60
55757;BME280;41676;44.610;44.078;2023-08-07T09:15:34;99200.16;;;37.46;38.52
55757;BME280;41676;44.610;44.078;2023-08-07T09:20:37;99231.72;;;37.72;38.88
55757;BME280;41676;44.610;44.078;2023-08-07T09:25:42;99247.94;;;38.00;38.74
55757;BME280;41676;44.610;44.078;2023-08-07T09:30:42;99254.75;;;38.10;37.70
55757;BME280;41676;44.610;44.078;2023-08-07T09:35:45;99244.19;;;38.23;37.79
55757;BME280;41676;44.610;44.078;2023-08-07T09:40:45;99263.84;;;38.44;37.66
55757;BME280;41676;44.610;44.078;2023-08-07T09:45:46;99199.78;;;38.19;37.79
55757;BME280;41676;44.610;44.078;2023-08-07T09:50:47;99218.47;;;38.26;37.65
55757;BME280;41676;44.610;44.078;2023-08-07T09:55:48;99221.06;;;38.45;37.06
55757;BME280;41676;44.610;44.078;2023-08-07T10:00:49;99247.72;;;38.57;36.51
55757;BME280;41676;44.610;44.078;2023-08-07T10:05:50;99229.22;;;38.31;37.19
55757;BME280;41676;44.610;44.078;2023-08-07T10:10:51;99246.53;;;38.58;36.77
55757;BME280;41676;44.610;44.078;2023-08-07T10:15:52;99256.94;;;38.68;36.42
55757;BME280;41676;44.610;44.078;2023-08-07T10:20:53;99254.16;;;38.68;36.36
55757;BME280;41676;44.610;44.078;2023-08-07T10:25:56;99210.13;;;38.22;37.10
55757;BME280;41676;44.610;44.078;2023-08-07T10:30:58;99205.13;;;38.39;36.09
55757;BME280;41676;44.610;44.078;2023-08-07T10:35:59;99253.59;;;38.96;36.34
55757;BME280;41676;44.610;44.078;2023-08-07T10:41:13;99251.28;;;39.06;36.58
55757;BME280;41676;44.610;44.078;2023-08-07T10:46:20;99178.41;;;38.64;34.82
55757;BME280;41676;44.610;44.078;2023-08-07T10:51:29;99241.31;;;39.01;34.07
55757;BME280;41676;44.610;44.078;2023-08-07T10:56:35;99234.66;;;39.13;35.56
55757;BME280;41676;44.610;44.078;2023-08-07T11:01:42;99182.06;;;38.79;34.84
55757;BME280;41676;44.610;44.078;2023-08-07T11:06:46;99240.66;;;39.18;34.73
55757;BME280;41676;44.610;44.078;2023-08-07T11:11:48;99247.53;;;39.35;34.31
55757;BME280;41676;44.610;44.078;2023-08-07T11:16:49;99188.09;;;38.88;34.35
55757;BME280;41676;44.610;44.078;2023-08-07T11:21:49;99188.53;;;38.94;34.15
55757;BME280;41676;44.610;44.078;2023-08-07T11:26:51;99251.56;;;39.48;33.21
55757;BME280;41676;44.610;44.078;2023-08-07T11:31:53;99177.78;;;38.85;33.92
55757;BME280;41676;44.610;44.078;2023-08-07T11:36:53;99246.84;;;39.60;33.96
55757;BME280;41676;44.610;44.078;2023-08-07T11:41:59;99260.75;;;39.60;32.80
55757;BME280;41676;44.610;44.078;2023-08-07T11:47:00;99203.50;;;39.44;33.87
55757;BME280;41676;44.610;44.078;2023-08-07T11:52:01;99211.06;;;39.47;33.95
55757;BME280;41676;44.610;44.078;2023-08-07T11:57:03;99245.25;;;39.59;33.93
55757;BME280;41676;44.610;44.078;2023-08-07T12:02:09;99258.00;;;39.67;33.50
55757;BME280;41676;44.610;44.078;2023-08-07T12:07:17;99255.59;;;39.65;34.76
55757;BME280;41676;44.610;44.078;2023-08-07T12:12:19;99187.00;;;39.03;32.46
55757;BME280;41676;44.610;44.078;2023-08-07T12:17:21;99192.63;;;39.11;32.97
55757;BME280;41676;44.610;44.078;2023-08-07T12:22:22;99254.72;;;39.43;32.76
55757;BME280;41676;44.610;44.078;2023-08-07T12:27:23;99252.31;;;39.38;33.02
55757;BME280;41676;44.610;44.078;2023-08-07T12:32:23;99212.09;;;39.18;33.51
55757;BME280;41676;44.610;44.078;2023-08-07T12:37:25;99232.44;;;39.36;32.44
55757;BME280;41676;44.610;44.078;2023-08-07T12:42:25;99178.38;;;39.19;31.52
55757;BME280;41676;44.610;44.078;2023-08-07T12:47:26;99248.47;;;39.64;32.36
55757;BME280;41676;44.610;44.078;2023-08-07T12:52:27;99242.88;;;39.61;31.82
55757;BME280;41676;44.610;44.078;2023-08-07T12:57:27;99178.66;;;39.03;33.07
55757;BME280;41676;44.610;44.078;2023-08-07T13:02:28;99249.56;;;39.45;33.27
55757;BME280;41676;44.610;44.078;2023-08-07T13:07:29;99213.72;;;39.26;32.61
55757;BME280;41676;44.610;44.078;2023-08-07T13:12:30;99226.78;;;39.22;33.39
55757;BME280;41676;44.610;44.078;2023-08-07T13:17:35;99246.19;;;39.18;32.24
55757;BME280;41676;44.610;44.078;2023-08-07T13:22:37;99245.97;;;39.41;32.89
55757;BME280;41676;44.610;44.078;2023-08-07T13:27:38;99220.94;;;39.34;33.00
55757;BME280;41676;44.610;44.078;2023-08-07T13:32:39;99250.41;;;39.60;32.39
55757;BME280;41676;44.610;44.078;2023-08-07T13:37:40;99255.56;;;39.55;33.19
55757;BME280;41676;44.610;44.078;2023-08-07T13:42:41;99240.31;;;39.27;33.47
55757;BME280;41676;44.610;44.078;2023-08-07T13:47:42;99202.03;;;38.95;34.13
55757;BME280;41676;44.610;44.078;2023-08-07T13:52:42;99244.19;;;39.12;34.22
55757;BME280;41676;44.610;44.078;2023-08-07T13:57:43;99246.88;;;39.01;33.50
55757;BME280;41676;44.610;44.078;2023-08-07T14:02:44;99160.31;;;38.36;33.88
55757;BME280;41676;44.610;44.078;2023-08-07T14:07:45;99251.88;;;38.81;33.64
55757;BME280;41676;44.610;44.078;2023-08-07T14:12:46;99202.53;;;38.56;33.65
55757;BME280;41676;44.610;44.078;2023-08-07T14:17:47;99253.47;;;38.82;33.93
55757;BME280;41676;44.610;44.078;2023-08-07T14:22:48;99261.66;;;38.64;34.25
55757;BME280;41676;44.610;44.078;2023-08-07T14:27:48;99264.75;;;38.55;34.00
55757;BME280;41676;44.610;44.078;2023-08-07T14:32:49;99236.81;;;38.37;34.34
55757;BME280;41676;44.610;44.078;2023-08-07T14:37:50;99261.84;;;38.41;34.70
55757;BME280;41676;44.610;44.078;2023-08-07T14:42:51;99261.47;;;38.43;34.29
55757;BME280;41676;44.610;44.078;2023-08-07T14:47:52;99183.81;;;37.72;35.38
55757;BME280;41676;44.610;44.078;2023-08-07T14:52:53;99199.44;;;37.53;36.04
55757;BME280;41676;44.610;44.078;2023-08-07T14:57:54;99264.03;;;37.91;35.82
55757;BME280;41676;44.610;44.078;2023-08-07T15:02:56;99277.91;;;37.91;36.60
55757;BME280;41676;44.610;44.078;2023-08-07T15:08:00;99276.25;;;37.86;36.30
55757;BME280;41676;44.610;44.078;2023-08-07T15:13:01;99249.72;;;37.52;37.42
55757;BME280;41676;44.610;44.078;2023-08-07T15:18:02;99219.19;;;37.21;36.36
55757;BME280;41676;44.610;44.078;2023-08-07T15:23:05;99292.03;;;37.26;38.83
55757;BME280;41676;44.610;44.078;2023-08-07T15:28:06;99232.41;;;36.82;38.16
55757;BME280;41676;44.610;44.078;2023-08-07T15:33:07;99232.63;;;36.70;38.57
55757;BME280;41676;44.610;44.078;2023-08-07T15:38:08;99221.84;;;36.42;38.55
55757;BME280;41676;44.610;44.078;2023-08-07T15:43:11;99226.63;;;36.22;39.66
55757;BME280;41676;44.610;44.078;2023-08-07T15:48:12;99265.72;;;36.20;39.43
55757;BME280;41676;44.610;44.078;2023-08-07T15:53:12;99259.59;;;35.92;40.14
55757;BME280;41676;44.610;44.078;2023-08-07T15:58:13;99292.81;;;35.95;39.85
55757;BME280;41676;44.610;44.078;2023-08-07T16:03:14;99277.19;;;35.64;40.13
55757;BME280;41676;44.610;44.078;2023-08-07T16:08:15;99290.41;;;35.55;40.35
55757;BME280;41676;44.610;44.078;2023-08-07T16:13:16;99229.94;;;34.98;40.37
55757;BME280;41676;44.610;44.078;2023-08-07T16:18:17;99302.41;;;35.27;40.63
55757;BME280;41676;44.610;44.078;2023-08-07T16:23:17;99318.97;;;35.11;41.06
55757;BME280;41676;44.610;44.078;2023-08-07T16:28:18;99324.47;;;34.95;41.45
55757;BME280;41676;44.610;44.078;2023-08-07T16:33:19;99314.31;;;34.68;42.02
55757;BME280;41676;44.610;44.078;2023-08-07T16:38:20;99293.75;;;34.37;42.19
55757;BME280;41676;44.610;44.078;2023-08-07T16:43:21;99335.56;;;34.39;42.91
55757;BME280;41676;44.610;44.078;2023-08-07T16:48:22;99296.47;;;33.93;44.18
55757;BME280;41676;44.610;44.078;2023-08-07T16:53:22;99335.03;;;33.93;45.02
55757;BME280;41676;44.610;44.078;2023-08-07T16:58:23;99291.97;;;33.48;44.86
55757;BME280;41676;44.610;44.078;2023-08-07T17:03:24;99333.28;;;33.60;44.58
55757;BME280;41676;44.610;44.078;2023-08-07T17:08:25;99352.34;;;33.66;44.17
55757;BME280;41676;44.610;44.078;2023-08-07T17:13:25;99340.72;;;33.48;44.34
55757;BME280;41676;44.610;44.078;2023-08-07T17:18:26;99348.19;;;33.35;44.56
55757;BME280;41676;44.610;44.078;2023-08-07T17:23:27;99307.00;;;33.02;44.62
55757;BME280;41676;44.610;44.078;2023-08-07T17:28:28;99368.81;;;33.29;44.77
55757;BME280;41676;44.610;44.078;2023-08-07T17:33:32;99377.78;;;33.26;44.79
55757;BME280;41676;44.610;44.078;2023-08-07T17:38:35;99372.47;;;33.21;44.93
55757;BME280;41676;44.610;44.078;2023-08-07T17:43:36;99368.47;;;33.06;45.31
55757;BME280;41676;44.610;44.078;2023-08-07T17:48:37;99377.97;;;33.08;45.24
55757;BME280;41676;44.610;44.078;2023-08-07T17:53:39;99383.78;;;32.94;45.74
55757;BME280;41676;44.610;44.078;2023-08-07T17:58:40;99387.81;;;32.97;45.59
55757;BME280;41676;44.610;44.078;2023-08-07T18:03:41;99326.03;;;32.49;45.95
55757;BME280;41676;44.610;44.078;2023-08-07T18:08:41;99403.69;;;32.79;46.34
55757;BME280;41676;44.610;44.078;2023-08-07T18:13:42;99331.88;;;32.26;46.73
55757;BME280;41676;44.610;44.078;2023-08-07T18:18:43;99394.09;;;32.52;47.04
55757;BME280;41676;44.610;44.078;2023-08-07T18:23:44;99349.91;;;32.15;46.87
55757;BME280;41676;44.610;44.078;2023-08-07T18:28:44;99403.88;;;32.41;47.43
55757;BME280;41676;44.610;44.078;2023-08-07T18:33:45;99412.84;;;32.29;47.54
55757;BME280;41676;44.610;44.078;2023-08-07T18:38:46;99413.59;;;32.17;48.04
55757;BME280;41676;44.610;44.078;2023-08-07T18:43:47;99386.94;;;31.88;47.94
55757;BME280;41676;44.610;44.078;2023-08-07T18:48:48;99363.22;;;31.63;48.44
55757;BME280;41676;44.610;44.078;2023-08-07T18:53:48;99428.47;;;31.95;48.18
55757;BME280;41676;44.610;44.078;2023-08-07T18:58:50;99367.47;;;31.51;48.09
55757;BME280;41676;44.610;44.078;2023-08-07T19:03:50;99431.09;;;31.83;47.84
55757;BME280;41676;44.610;44.078;2023-08-07T19:08:51;99430.78;;;31.76;47.74
55757;BME280;41676;44.610;44.078;2023-08-07T19:13:53;99424.06;;;31.65;48.66
55757;BME280;41676;44.610;44.078;2023-08-07T19:18:54;99432.81;;;31.58;48.36
55757;BME280;41676;44.610;44.078;2023-08-07T19:23:55;99432.41;;;31.47;48.54
55757;BME280;41676;44.610;44.078;2023-08-07T19:28:56;99361.56;;;30.93;49.00
55757;BME280;41676;44.610;44.078;2023-08-07T19:33:57;99419.41;;;31.18;49.33
55757;BME280;41676;44.610;44.078;2023-08-07T19:38:58;99435.22;;;31.12;49.92
55757;BME280;41676;44.610;44.078;2023-08-07T19:43:58;99428.97;;;31.03;50.15
55757;BME280;41676;44.610;44.078;2023-08-07T19:48:59;99380.31;;;30.57;50.40
55757;BME280;41676;44.610;44.078;2023-08-07T19:54:00;99404.31;;;30.60;51.45
55757;BME280;41676;44.610;44.078;2023-08-07T19:59:01;99444.47;;;30.73;51.21
55757;BME280;41676;44.610;44.078;2023-08-07T20:04:05;99436.41;;;30.51;51.88
55757;BME280;41676;44.610;44.078;2023-08-07T20:09:05;99394.66;;;30.19;52.07
55757;BME280;41676;44.610;44.078;2023-08-07T20:14:06;99390.44;;;29.95;52.87
55757;BME280;41676;44.610;44.078;2023-08-07T20:19:07;99476.69;;;30.24;54.19
55757;BME280;41676;44.610;44.078;2023-08-07T20:24:08;99428.25;;;29.85;55.52
55757;BME280;41676;44.610;44.078;2023-08-07T20:29:08;99470.78;;;29.91;55.63
55757;BME280;41676;44.610;44.078;2023-08-07T20:34:09;99485.09;;;29.79;57.46
55757;BME280;41676;44.610;44.078;2023-08-07T20:39:12;99488.06;;;29.60;57.50
55757;BME280;41676;44.610;44.078;2023-08-07T20:44:13;99501.66;;;29.43;58.14
55757;BME280;41676;44.610;44.078;2023-08-07T20:49:14;99490.94;;;29.24;58.65
55757;BME280;41676;44.610;44.078;2023-08-07T20:54:15;99516.22;;;29.29;59.19
55757;BME280;41676;44.610;44.078;2023-08-07T20:59:15;99502.16;;;29.00;59.57
55757;BME280;41676;44.610;44.078;2023-08-07T21:04:16;99532.88;;;29.19;60.17
55757;BME280;41676;44.610;44.078;2023-08-07T21:09:17;99542.66;;;29.11;61.26
55757;BME280;41676;44.610;44.078;2023-08-07T21:14:18;99542.84;;;29.01;61.55
55757;BME280;41676;44.610;44.078;2023-08-07T21:19:19;99542.78;;;28.93;62.20
55757;BME280;41676;44.610;44.078;2023-08-07T21:24:19;99532.22;;;28.77;63.00
55757;BME280;41676;44.610;44.078;2023-08-07T21:29:20;99459.09;;;28.10;63.85
55757;BME280;41676;44.610;44.078;2023-08-07T21:34:21;99549.75;;;28.62;63.83
55757;BME280;41676;44.610;44.078;2023-08-07T21:39:22;99546.66;;;28.55;64.05
55757;BME280;41676;44.610;44.078;2023-08-07T21:44:22;99528.56;;;28.46;63.11
55757;BME280;41676;44.610;44.078;2023-08-07T21:49:23;99492.16;;;28.22;62.26
55757;BME280;41676;44.610;44.078;2023-08-07T21:54:24;99486.19;;;28.48;61.20
55757;BME280;41676;44.610;44.078;2023-08-07T21:59:25;99525.56;;;28.70;61.41
55757;BME280;41676;44.610;44.078;2023-08-07T22:04:25;99534.81;;;28.60;62.50
55757;BME280;41676;44.610;44.078;2023-08-07T22:09:26;99528.25;;;28.47;62.52
55757;BME280;41676;44.610;44.078;2023-08-07T22:14:27;99525.84;;;28.46;63.30
55757;BME280;41676;44.610;44.078;2023-08-07T22:19:28;99523.00;;;28.23;63.30
55757;BME280;41676;44.610;44.078;2023-08-07T22:24:28;99549.59;;;28.17;63.88
55757;BME280;41676;44.610;44.078;2023-08-07T22:29:29;99542.84;;;28.01;65.45
55757;BME280;41676;44.610;44.078;2023-08-07T22:34:30;99482.97;;;27.49;65.45
55757;BME280;41676;44.610;44.078;2023-08-07T22:39:33;99550.63;;;27.80;65.73
55757;BME280;41676;44.610;44.078;2023-08-07T22:44:34;99544.50;;;27.69;66.69
55757;BME280;41676;44.610;44.078;2023-08-07T22:49:35;99553.34;;;27.80;67.44
55757;BME280;41676;44.610;44.078;2023-08-07T22:54:36;99507.59;;;27.44;68.69
55757;BME280;41676;44.610;44.078;2023-08-07T22:59:36;99482.50;;;27.28;69.54
55757;BME280;41676;44.610;44.078;2023-08-07T23:04:37;99531.00;;;27.45;70.48
55757;BME280;41676;44.610;44.078;2023-08-07T23:09:38;99528.56;;;27.30;71.44
55757;BME280;41676;44.610;44.078;2023-08-07T23:14:39;99522.53;;;27.14;72.29
55757;BME280;41676;44.610;44.078;2023-08-07T23:19:40;99534.47;;;27.18;73.08
55757;BME280;41676;44.610;44.078;2023-08-07T23:24:40;99549.44;;;27.21;72.86
55757;BME280;41676;44.610;44.078;2023-08-07T23:29:42;99556.13;;;27.09;73.82
55757;BME280;41676;44.610;44.078;2023-08-07T23:34:43;99548.50;;;26.93;74.15
55757;BME280;41676;44.610;44.078;2023-08-07T23:39:44;99546.94;;;26.86;74.75
55757;BME280;41676;44.610;44.078;2023-08-07T23:44:44;99560.56;;;26.86;75.09
55757;BME280;41676;44.610;44.078;2023-08-07T23:49:45;99564.38;;;26.85;75.89
55757;BME280;41676;44.610;44.078;2023-08-07T23:54:46;99549.75;;;26.81;76.09
55757;BME280;41676;44.610;44.078;2023-08-07T23:59:47;99492.06;;;26.36;76.54
